Terminal Aerodrome Forecast
Issued by NWS

Home | Current Version | Previous Version | Text Only | Print | Product List | Glossary On
Versions: 1 2 3 4 5 6 7 8 9 10 11 12 13 14 15
000
FTUS46 KSEW 251120
TAFBLI
TAF
KBLI 251120Z 2512/2612 18015G22KT P6SM -RA BKN030 OVC040
     FM252200 19011G18KT P6SM VCSH SCT020 BKN035
     FM260100 16007KT P6SM SCT025 BKN040
     FM260600 VRB04KT P6SM SCT025 BKN040=

USA.gov is the U.S. government's official web portal to all federal, state and local government web resources and services.